sensor_id;sensor_type;location;lat;lon;timestamp;temperature;humidity
8820;DHT22;4446;50.876;4.736;2022-11-15T00:02:19;10.10;99.90
8820;DHT22;4446;50.876;4.736;2022-11-15T00:04:46;10.10;99.90
8820;DHT22;4446;50.876;4.736;2022-11-15T00:07:13;10.20;99.90
8820;DHT22;4446;50.876;4.736;2022-11-15T00:09:40;10.30;99.90
8820;DHT22;4446;50.876;4.736;2022-11-15T00:12:08;10.30;99.90
8820;DHT22;4446;50.876;4.736;2022-11-15T00:14:35;10.30;99.90
8820;DHT22;4446;50.876;4.736;2022-11-15T00:17:02;10.30;99.90
8820;DHT22;4446;50.876;4.736;2022-11-15T00:19:29;10.40;99.90
8820;DHT22;4446;50.876;4.736;2022-11-15T00:21:56;10.30;99.90
8820;DHT22;4446;50.876;4.736;2022-11-15T00:24:23;10.30;99.90
8820;DHT22;4446;50.876;4.736;2022-11-15T00:26:50;10.40;99.90
8820;DHT22;4446;50.876;4.736;2022-11-15T00:29:19;10.40;99.90
8820;DHT22;4446;50.876;4.736;2022-11-15T00:31:46;10.40;99.90
8820;DHT22;4446;50.876;4.736;2022-11-15T00:34:13;10.50;99.90
8820;DHT22;4446;50.876;4.736;2022-11-15T00:36:40;10.50;99.90
8820;DHT22;4446;50.876;4.736;2022-11-15T00:39:07;10.50;99.90
8820;DHT22;4446;50.876;4.736;2022-11-15T00:41:34;10.60;99.90
8820;DHT22;4446;50.876;4.736;2022-11-15T00:44:01;10.60;99.90
8820;DHT22;4446;50.876;4.736;2022-11-15T00:46:29;10.60;99.90
8820;DHT22;4446;50.876;4.736;2022-11-15T00:48:56;10.60;99.90
8820;DHT22;4446;50.876;4.736;2022-11-15T00:51:23;10.60;99.90
8820;DHT22;4446;50.876;4.736;2022-11-15T00:53:50;10.70;99.90
8820;DHT22;4446;50.876;4.736;2022-11-15T00:56:17;10.60;99.90
8820;DHT22;4446;50.876;4.736;2022-11-15T00:58:44;10.60;99.90
8820;DHT22;4446;50.876;4.736;2022-11-15T01:01:13;10.70;99.90
8820;DHT22;4446;50.876;4.736;2022-11-15T01:03:42;10.70;99.90
8820;DHT22;4446;50.876;4.736;2022-11-15T01:06:09;10.70;99.90
8820;DHT22;4446;50.876;4.736;2022-11-15T01:08:38;10.70;99.90
8820;DHT22;4446;50.876;4.736;2022-11-15T01:11:07;10.70;99.90
8820;DHT22;4446;50.876;4.736;2022-11-15T01:13:35;10.70;99.90
8820;DHT22;4446;50.876;4.736;2022-11-15T01:16:06;10.70;99.90
8820;DHT22;4446;50.876;4.736;2022-11-15T01:18:33;10.70;99.90
8820;DHT22;4446;50.876;4.736;2022-11-15T01:21:07;10.80;99.90
8820;DHT22;4446;50.876;4.736;2022-11-15T01:23:34;10.80;99.90
8820;DHT22;4446;50.876;4.736;2022-11-15T01:26:02;10.80;99.90
8820;DHT22;4446;50.876;4.736;2022-11-15T01:28:30;10.80;99.90
8820;DHT22;4446;50.876;4.736;2022-11-15T01:30:58;10.90;99.90
8820;DHT22;4446;50.876;4.736;2022-11-15T01:33:26;10.90;99.90
8820;DHT22;4446;50.876;4.736;2022-11-15T01:35:53;10.90;99.90
8820;DHT22;4446;50.876;4.736;2022-11-15T01:38:22;11.00;99.90
8820;DHT22;4446;50.876;4.736;2022-11-15T01:40:49;11.10;99.90
8820;DHT22;4446;50.876;4.736;2022-11-15T01:43:21;11.10;99.90
8820;DHT22;4446;50.876;4.736;2022-11-15T01:45:51;11.10;99.90
8820;DHT22;4446;50.876;4.736;2022-11-15T01:48:19;11.10;99.90
8820;DHT22;4446;50.876;4.736;2022-11-15T01:50:46;11.20;99.90
8820;DHT22;4446;50.876;4.736;2022-11-15T01:53:14;11.30;99.90
8820;DHT22;4446;50.876;4.736;2022-11-15T01:55:43;11.30;99.90
8820;DHT22;4446;50.876;4.736;2022-11-15T01:58:10;11.30;99.90
8820;DHT22;4446;50.876;4.736;2022-11-15T02:00:37;11.30;99.90
8820;DHT22;4446;50.876;4.736;2022-11-15T02:03:05;11.30;99.90
8820;DHT22;4446;50.876;4.736;2022-11-15T02:05:32;11.30;99.90
8820;DHT22;4446;50.876;4.736;2022-11-15T02:08:00;11.40;99.90
8820;DHT22;4446;50.876;4.736;2022-11-15T02:10:28;11.30;99.90
8820;DHT22;4446;50.876;4.736;2022-11-15T02:12:57;11.30;99.90
8820;DHT22;4446;50.876;4.736;2022-11-15T02:15:31;11.30;99.90
8820;DHT22;4446;50.876;4.736;2022-11-15T02:18:09;11.30;99.90
8820;DHT22;4446;50.876;4.736;2022-11-15T02:20:52;11.30;99.90
8820;DHT22;4446;50.876;4.736;2022-11-15T02:23:46;11.30;99.90
8820;DHT22;4446;50.876;4.736;2022-11-15T02:26:34;11.20;99.90
8820;DHT22;4446;50.876;4.736;2022-11-15T02:29:09;11.20;99.90
8820;DHT22;4446;50.876;4.736;2022-11-15T02:31:44;11.20;99.90
8820;DHT22;4446;50.876;4.736;2022-11-15T02:34:19;11.20;99.90
8820;DHT22;4446;50.876;4.736;2022-11-15T02:36:59;11.20;99.90
8820;DHT22;4446;50.876;4.736;2022-11-15T02:39:34;11.20;99.90
8820;DHT22;4446;50.876;4.736;2022-11-15T02:42:06;11.20;99.90
8820;DHT22;4446;50.876;4.736;2022-11-15T02:44:56;11.10;99.90
8820;DHT22;4446;50.876;4.736;2022-11-15T02:47:26;11.20;99.90
8820;DHT22;4446;50.876;4.736;2022-11-15T02:49:58;11.10;99.90
8820;DHT22;4446;50.876;4.736;2022-11-15T02:52:25;11.10;99.90
8820;DHT22;4446;50.876;4.736;2022-11-15T02:54:53;11.10;99.90
8820;DHT22;4446;50.876;4.736;2022-11-15T02:57:27;11.10;99.90
8820;DHT22;4446;50.876;4.736;2022-11-15T03:00:08;11.10;99.90
8820;DHT22;4446;50.876;4.736;2022-11-15T03:02:58;11.00;99.90
8820;DHT22;4446;50.876;4.736;2022-11-15T03:05:37;11.00;99.90
8820;DHT22;4446;50.876;4.736;2022-11-15T03:08:09;11.00;99.90
8820;DHT22;4446;50.876;4.736;2022-11-15T03:10:45;11.00;99.90
8820;DHT22;4446;50.876;4.736;2022-11-15T03:13:21;11.00;99.90
8820;DHT22;4446;50.876;4.736;2022-11-15T03:15:55;11.00;99.90
8820;DHT22;4446;50.876;4.736;2022-11-15T03:18:29;11.00;99.90
8820;DHT22;4446;50.876;4.736;2022-11-15T03:21:00;11.00;99.90
8820;DHT22;4446;50.876;4.736;2022-11-15T03:23:29;11.00;99.90
8820;DHT22;4446;50.876;4.736;2022-11-15T03:25:58;11.00;99.90
8820;DHT22;4446;50.876;4.736;2022-11-15T03:28:31;11.10;99.90
8820;DHT22;4446;50.876;4.736;2022-11-15T03:31:01;11.00;99.90
8820;DHT22;4446;50.876;4.736;2022-11-15T03:33:51;11.00;99.90
8820;DHT22;4446;50.876;4.736;2022-11-15T03:36:21;11.10;99.90
8820;DHT22;4446;50.876;4.736;2022-11-15T03:38:51;11.00;99.90
8820;DHT22;4446;50.876;4.736;2022-11-15T03:41:24;11.00;99.90
8820;DHT22;4446;50.876;4.736;2022-11-15T03:43:56;11.00;99.90
8820;DHT22;4446;50.876;4.736;2022-11-15T03:46:31;11.10;99.90
8820;DHT22;4446;50.876;4.736;2022-11-15T03:49:05;11.10;99.90
8820;DHT22;4446;50.876;4.736;2022-11-15T03:51:34;11.10;99.90
8820;DHT22;4446;50.876;4.736;2022-11-15T03:54:03;11.10;99.90
8820;DHT22;4446;50.876;4.736;2022-11-15T03:56:30;11.00;99.90
8820;DHT22;4446;50.876;4.736;2022-11-15T03:58:58;11.00;99.90
8820;DHT22;4446;50.876;4.736;2022-11-15T04:01:25;11.00;99.90
8820;DHT22;4446;50.876;4.736;2022-11-15T04:03:52;11.00;99.90
8820;DHT22;4446;50.876;4.736;2022-11-15T04:06:20;11.00;99.90
8820;DHT22;4446;50.876;4.736;2022-11-15T04:08:47;11.00;99.90
8820;DHT22;4446;50.876;4.736;2022-11-15T04:11:14;11.00;99.90
8820;DHT22;4446;50.876;4.736;2022-11-15T04:13:41;11.00;99.90
8820;DHT22;4446;50.876;4.736;2022-11-15T04:16:08;10.90;99.90
8820;DHT22;4446;50.876;4.736;2022-11-15T04:18:35;10.90;99.90
8820;DHT22;4446;50.876;4.736;2022-11-15T04:21:02;10.90;99.90
8820;DHT22;4446;50.876;4.736;2022-11-15T04:23:48;10.90;99.90
8820;DHT22;4446;50.876;4.736;2022-11-15T04:26:41;10.80;99.90
8820;DHT22;4446;50.876;4.736;2022-11-15T04:29:08;10.80;99.90
8820;DHT22;4446;50.876;4.736;2022-11-15T04:31:52;10.70;99.90
8820;DHT22;4446;50.876;4.736;2022-11-15T04:34:19;10.70;99.90
8820;DHT22;4446;50.876;4.736;2022-11-15T04:36:46;10.70;99.90
8820;DHT22;4446;50.876;4.736;2022-11-15T04:39:32;10.70;99.90
8820;DHT22;4446;50.876;4.736;2022-11-15T04:41:59;10.80;99.90
8820;DHT22;4446;50.876;4.736;2022-11-15T04:44:26;10.70;99.90
8820;DHT22;4446;50.876;4.736;2022-11-15T04:46:53;10.70;99.90
8820;DHT22;4446;50.876;4.736;2022-11-15T04:49:20;10.70;99.90
8820;DHT22;4446;50.876;4.736;2022-11-15T04:51:47;10.60;99.90
8820;DHT22;4446;50.876;4.736;2022-11-15T04:54:14;10.50;99.90
8820;DHT22;4446;50.876;4.736;2022-11-15T04:56:42;10.50;99.90
8820;DHT22;4446;50.876;4.736;2022-11-15T04:59:09;10.50;99.90
8820;DHT22;4446;50.876;4.736;2022-11-15T05:01:36;10.40;99.90
8820;DHT22;4446;50.876;4.736;2022-11-15T05:04:04;10.40;99.90
8820;DHT22;4446;50.876;4.736;2022-11-15T05:06:49;10.30;99.90
8820;DHT22;4446;50.876;4.736;2022-11-15T05:09:17;10.20;99.90
8820;DHT22;4446;50.876;4.736;2022-11-15T05:11:46;10.10;99.90
8820;DHT22;4446;50.876;4.736;2022-11-15T05:14:13;10.00;99.90
8820;DHT22;4446;50.876;4.736;2022-11-15T05:16:40;10.00;99.90
8820;DHT22;4446;50.876;4.736;2022-11-15T05:19:07;9.90;99.90
8820;DHT22;4446;50.876;4.736;2022-11-15T05:21:35;10.00;99.90
8820;DHT22;4446;50.876;4.736;2022-11-15T05:24:02;10.00;99.90
8820;DHT22;4446;50.876;4.736;2022-11-15T05:26:30;10.00;99.90
8820;DHT22;4446;50.876;4.736;2022-11-15T05:28:59;10.00;99.90
8820;DHT22;4446;50.876;4.736;2022-11-15T05:31:27;10.00;99.90
8820;DHT22;4446;50.876;4.736;2022-11-15T05:33:55;10.00;99.90
8820;DHT22;4446;50.876;4.736;2022-11-15T05:36:28;10.00;99.90
8820;DHT22;4446;50.876;4.736;2022-11-15T05:38:56;10.00;99.90
8820;DHT22;4446;50.876;4.736;2022-11-15T05:41:26;9.90;99.90
8820;DHT22;4446;50.876;4.736;2022-11-15T05:43:56;9.90;99.90
8820;DHT22;4446;50.876;4.736;2022-11-15T05:46:25;9.90;99.90
8820;DHT22;4446;50.876;4.736;2022-11-15T05:48:53;9.90;99.90
8820;DHT22;4446;50.876;4.736;2022-11-15T05:51:22;9.80;99.90
8820;DHT22;4446;50.876;4.736;2022-11-15T05:53:50;9.70;99.90
8820;DHT22;4446;50.876;4.736;2022-11-15T05:56:17;9.60;99.90
8820;DHT22;4446;50.876;4.736;2022-11-15T05:58:44;9.50;99.90
8820;DHT22;4446;50.876;4.736;2022-11-15T06:01:11;9.50;99.90
8820;DHT22;4446;50.876;4.736;2022-11-15T06:03:39;9.30;99.90
8820;DHT22;4446;50.876;4.736;2022-11-15T06:06:06;9.30;99.90
8820;DHT22;4446;50.876;4.736;2022-11-15T06:08:34;9.30;99.90
8820;DHT22;4446;50.876;4.736;2022-11-15T06:11:05;9.30;99.90
8820;DHT22;4446;50.876;4.736;2022-11-15T06:13:32;9.50;99.90
8820;DHT22;4446;50.876;4.736;2022-11-15T06:16:00;9.40;99.90
8820;DHT22;4446;50.876;4.736;2022-11-15T06:18:28;9.40;99.90
8820;DHT22;4446;50.876;4.736;2022-11-15T06:21:00;9.30;99.90
8820;DHT22;4446;50.876;4.736;2022-11-15T06:23:27;9.20;99.90
8820;DHT22;4446;50.876;4.736;2022-11-15T06:25:57;9.10;99.90
8820;DHT22;4446;50.876;4.736;2022-11-15T06:28:25;8.90;99.90
8820;DHT22;4446;50.876;4.736;2022-11-15T06:30:54;8.90;99.90
8820;DHT22;4446;50.876;4.736;2022-11-15T06:33:22;8.90;99.90
8820;DHT22;4446;50.876;4.736;2022-11-15T06:35:49;8.90;99.90
8820;DHT22;4446;50.876;4.736;2022-11-15T06:38:18;9.00;99.90
8820;DHT22;4446;50.876;4.736;2022-11-15T06:40:45;8.80;99.90
8820;DHT22;4446;50.876;4.736;2022-11-15T06:43:13;8.80;99.90
8820;DHT22;4446;50.876;4.736;2022-11-15T06:45:40;8.60;99.90
8820;DHT22;4446;50.876;4.736;2022-11-15T06:48:07;8.60;99.90
8820;DHT22;4446;50.876;4.736;2022-11-15T06:50:34;8.60;99.90
8820;DHT22;4446;50.876;4.736;2022-11-15T06:53:02;8.50;99.90
8820;DHT22;4446;50.876;4.736;2022-11-15T06:55:30;8.30;99.90
8820;DHT22;4446;50.876;4.736;2022-11-15T06:57:58;8.20;99.90
8820;DHT22;4446;50.876;4.736;2022-11-15T07:00:25;8.10;99.90
8820;DHT22;4446;50.876;4.736;2022-11-15T07:02:52;8.20;99.90
8820;DHT22;4446;50.876;4.736;2022-11-15T07:05:19;8.10;99.90
8820;DHT22;4446;50.876;4.736;2022-11-15T07:07:51;8.00;99.90
8820;DHT22;4446;50.876;4.736;2022-11-15T07:10:19;8.00;99.90
8820;DHT22;4446;50.876;4.736;2022-11-15T07:12:48;8.20;99.90
8820;DHT22;4446;50.876;4.736;2022-11-15T07:15:15;8.20;99.90
8820;DHT22;4446;50.876;4.736;2022-11-15T07:17:42;8.10;99.90
8820;DHT22;4446;50.876;4.736;2022-11-15T07:20:10;8.10;99.90
8820;DHT22;4446;50.876;4.736;2022-11-15T07:22:38;8.20;99.90
8820;DHT22;4446;50.876;4.736;2022-11-15T07:25:06;8.30;99.90
8820;DHT22;4446;50.876;4.736;2022-11-15T07:27:33;8.30;99.90
8820;DHT22;4446;50.876;4.736;2022-11-15T07:30:03;8.40;99.90
8820;DHT22;4446;50.876;4.736;2022-11-15T07:32:30;8.40;99.90
8820;DHT22;4446;50.876;4.736;2022-11-15T07:34:57;8.40;99.90
8820;DHT22;4446;50.876;4.736;2022-11-15T07:37:24;8.40;99.90
8820;DHT22;4446;50.876;4.736;2022-11-15T07:39:52;8.40;99.90
8820;DHT22;4446;50.876;4.736;2022-11-15T07:42:18;8.40;99.90
8820;DHT22;4446;50.876;4.736;2022-11-15T07:45:05;8.40;99.90
8820;DHT22;4446;50.876;4.736;2022-11-15T07:47:32;8.50;99.90
8820;DHT22;4446;50.876;4.736;2022-11-15T07:49:59;8.50;99.90
8820;DHT22;4446;50.876;4.736;2022-11-15T07:52:26;8.50;99.90
8820;DHT22;4446;50.876;4.736;2022-11-15T07:54:53;8.60;99.90
8820;DHT22;4446;50.876;4.736;2022-11-15T07:57:20;8.50;99.90
8820;DHT22;4446;50.876;4.736;2022-11-15T07:59:47;8.60;99.90
8820;DHT22;4446;50.876;4.736;2022-11-15T08:02:16;8.60;99.90
8820;DHT22;4446;50.876;4.736;2022-11-15T08:04:43;8.60;99.90
8820;DHT22;4446;50.876;4.736;2022-11-15T08:07:10;8.50;99.90
8820;DHT22;4446;50.876;4.736;2022-11-15T08:09:37;8.60;99.90
8820;DHT22;4446;50.876;4.736;2022-11-15T08:12:07;8.60;99.90
8820;DHT22;4446;50.876;4.736;2022-11-15T08:14:34;8.60;99.90
8820;DHT22;4446;50.876;4.736;2022-11-15T08:17:01;8.60;99.90
8820;DHT22;4446;50.876;4.736;2022-11-15T08:19:30;8.60;99.90
8820;DHT22;4446;50.876;4.736;2022-11-15T08:21:58;8.80;99.90
8820;DHT22;4446;50.876;4.736;2022-11-15T08:24:25;8.80;99.90
8820;DHT22;4446;50.876;4.736;2022-11-15T08:26:52;8.80;99.90
8820;DHT22;4446;50.876;4.736;2022-11-15T08:29:19;8.90;99.90
8820;DHT22;4446;50.876;4.736;2022-11-15T08:31:47;8.90;99.90
8820;DHT22;4446;50.876;4.736;2022-11-15T08:34:14;8.90;99.90
8820;DHT22;4446;50.876;4.736;2022-11-15T08:36:43;8.90;99.90
8820;DHT22;4446;50.876;4.736;2022-11-15T08:39:10;9.00;99.90
8820;DHT22;4446;50.876;4.736;2022-11-15T08:41:38;9.00;99.90
8820;DHT22;4446;50.876;4.736;2022-11-15T08:44:05;9.10;99.90
8820;DHT22;4446;50.876;4.736;2022-11-15T08:46:32;9.10;99.90
8820;DHT22;4446;50.876;4.736;2022-11-15T08:48:59;9.10;99.90
8820;DHT22;4446;50.876;4.736;2022-11-15T08:51:26;9.10;99.90
8820;DHT22;4446;50.876;4.736;2022-11-15T08:53:55;9.20;99.90
8820;DHT22;4446;50.876;4.736;2022-11-15T08:56:22;9.20;99.90
8820;DHT22;4446;50.876;4.736;2022-11-15T08:58:49;9.20;99.90
8820;DHT22;4446;50.876;4.736;2022-11-15T09:01:18;9.30;99.90
8820;DHT22;4446;50.876;4.736;2022-11-15T09:03:45;9.40;99.90
8820;DHT22;4446;50.876;4.736;2022-11-15T09:06:12;9.50;99.90
8820;DHT22;4446;50.876;4.736;2022-11-15T09:08:40;9.60;99.90
8820;DHT22;4446;50.876;4.736;2022-11-15T09:11:09;9.70;99.90
8820;DHT22;4446;50.876;4.736;2022-11-15T09:13:37;9.70;99.90
8820;DHT22;4446;50.876;4.736;2022-11-15T09:16:04;9.60;99.90
8820;DHT22;4446;50.876;4.736;2022-11-15T09:18:32;9.70;99.90
8820;DHT22;4446;50.876;4.736;2022-11-15T09:21:00;9.80;99.90
8820;DHT22;4446;50.876;4.736;2022-11-15T09:23:28;9.80;99.90
8820;DHT22;4446;50.876;4.736;2022-11-15T09:25:59;9.80;99.90
8820;DHT22;4446;50.876;4.736;2022-11-15T09:28:28;9.90;99.90
8820;DHT22;4446;50.876;4.736;2022-11-15T09:30:57;10.00;99.90
8820;DHT22;4446;50.876;4.736;2022-11-15T09:33:26;10.10;99.90
8820;DHT22;4446;50.876;4.736;2022-11-15T09:35:53;10.10;99.90
8820;DHT22;4446;50.876;4.736;2022-11-15T09:38:20;10.20;99.90
8820;DHT22;4446;50.876;4.736;2022-11-15T09:40:50;10.20;99.90
8820;DHT22;4446;50.876;4.736;2022-11-15T09:43:30;10.20;99.90
8820;DHT22;4446;50.876;4.736;2022-11-15T09:46:09;10.20;99.90
8820;DHT22;4446;50.876;4.736;2022-11-15T09:48:49;10.30;99.90
8820;DHT22;4446;50.876;4.736;2022-11-15T09:51:25;10.30;99.90
8820;DHT22;4446;50.876;4.736;2022-11-15T09:54:00;10.30;99.90
8820;DHT22;4446;50.876;4.736;2022-11-15T09:56:30;10.50;99.90
8820;DHT22;4446;50.876;4.736;2022-11-15T09:59:08;10.50;99.90
8820;DHT22;4446;50.876;4.736;2022-11-15T10:01:44;10.50;99.90
8820;DHT22;4446;50.876;4.736;2022-11-15T10:04:14;10.60;99.90
8820;DHT22;4446;50.876;4.736;2022-11-15T10:06:46;10.60;99.90
8820;DHT22;4446;50.876;4.736;2022-11-15T10:09:19;10.70;99.90
8820;DHT22;4446;50.876;4.736;2022-11-15T10:11:47;10.80;99.90
8820;DHT22;4446;50.876;4.736;2022-11-15T10:14:19;10.80;99.90
8820;DHT22;4446;50.876;4.736;2022-11-15T10:17:30;10.70;99.90
8820;DHT22;4446;50.876;4.736;2022-11-15T10:20:10;10.80;99.90
8820;DHT22;4446;50.876;4.736;2022-11-15T10:22:40;10.80;99.90
8820;DHT22;4446;50.876;4.736;2022-11-15T10:25:26;10.90;99.90
8820;DHT22;4446;50.876;4.736;2022-11-15T10:27:56;10.90;99.90
8820;DHT22;4446;50.876;4.736;2022-11-15T10:30:31;11.00;99.90
8820;DHT22;4446;50.876;4.736;2022-11-15T10:33:13;11.10;99.90
8820;DHT22;4446;50.876;4.736;2022-11-15T10:35:44;11.20;99.90
8820;DHT22;4446;50.876;4.736;2022-11-15T10:38:11;11.20;99.90
8820;DHT22;4446;50.876;4.736;2022-11-15T10:40:40;11.20;99.90
8820;DHT22;4446;50.876;4.736;2022-11-15T10:43:15;11.20;99.90
8820;DHT22;4446;50.876;4.736;2022-11-15T10:45:45;11.30;99.90
8820;DHT22;4446;50.876;4.736;2022-11-15T10:48:23;11.30;99.90
8820;DHT22;4446;50.876;4.736;2022-11-15T10:50:53;11.40;99.90
8820;DHT22;4446;50.876;4.736;2022-11-15T10:53:28;11.30;99.90
8820;DHT22;4446;50.876;4.736;2022-11-15T10:55:59;11.40;99.90
8820;DHT22;4446;50.876;4.736;2022-11-15T10:58:36;11.40;99.90
8820;DHT22;4446;50.876;4.736;2022-11-15T11:01:16;11.50;99.90
8820;DHT22;4446;50.876;4.736;2022-11-15T11:03:45;11.70;99.90
8820;DHT22;4446;50.876;4.736;2022-11-15T11:06:14;11.70;99.90
8820;DHT22;4446;50.876;4.736;2022-11-15T11:08:55;11.80;99.90
8820;DHT22;4446;50.876;4.736;2022-11-15T11:11:23;11.80;99.90
8820;DHT22;4446;50.876;4.736;2022-11-15T11:13:50;12.00;99.90
8820;DHT22;4446;50.876;4.736;2022-11-15T11:16:37;12.00;99.90
8820;DHT22;4446;50.876;4.736;2022-11-15T11:19:33;12.10;99.90
8820;DHT22;4446;50.876;4.736;2022-11-15T11:22:06;12.10;99.90
8820;DHT22;4446;50.876;4.736;2022-11-15T11:24:43;12.30;99.90
8820;DHT22;4446;50.876;4.736;2022-11-15T11:27:36;12.30;99.90
8820;DHT22;4446;50.876;4.736;2022-11-15T11:30:11;12.40;99.90
8820;DHT22;4446;50.876;4.736;2022-11-15T11:33:02;12.30;99.90
8820;DHT22;4446;50.876;4.736;2022-11-15T11:35:34;12.30;99.90
8820;DHT22;4446;50.876;4.736;2022-11-15T11:38:24;12.40;99.90
8820;DHT22;4446;50.876;4.736;2022-11-15T11:41:04;12.50;99.90
8820;DHT22;4446;50.876;4.736;2022-11-15T11:43:39;12.50;99.90
8820;DHT22;4446;50.876;4.736;2022-11-15T11:46:20;12.70;99.90
8820;DHT22;4446;50.876;4.736;2022-11-15T11:48:56;12.80;99.90
8820;DHT22;4446;50.876;4.736;2022-11-15T11:51:27;12.90;99.90
8820;DHT22;4446;50.876;4.736;2022-11-15T11:54:00;12.90;99.90
8820;DHT22;4446;50.876;4.736;2022-11-15T11:56:33;13.00;99.90
8820;DHT22;4446;50.876;4.736;2022-11-15T11:59:05;12.90;99.90
8820;DHT22;4446;50.876;4.736;2022-11-15T12:01:39;13.10;99.90
8820;DHT22;4446;50.876;4.736;2022-11-15T12:04:14;13.10;99.90
8820;DHT22;4446;50.876;4.736;2022-11-15T12:06:47;13.10;99.90
8820;DHT22;4446;50.876;4.736;2022-11-15T12:09:19;13.20;99.90
8820;DHT22;4446;50.876;4.736;2022-11-15T12:11:52;13.30;99.90
8820;DHT22;4446;50.876;4.736;2022-11-15T12:14:27;13.40;99.90
8820;DHT22;4446;50.876;4.736;2022-11-15T12:16:57;13.40;99.90
8820;DHT22;4446;50.876;4.736;2022-11-15T12:19:26;13.30;99.90
8820;DHT22;4446;50.876;4.736;2022-11-15T12:21:57;13.40;99.90
8820;DHT22;4446;50.876;4.736;2022-11-15T12:24:33;13.40;99.90
8820;DHT22;4446;50.876;4.736;2022-11-15T12:27:05;13.50;99.90
8820;DHT22;4446;50.876;4.736;2022-11-15T12:29:37;13.30;99.90
8820;DHT22;4446;50.876;4.736;2022-11-15T12:32:14;13.30;99.90
8820;DHT22;4446;50.876;4.736;2022-11-15T12:34:46;13.40;99.90
8820;DHT22;4446;50.876;4.736;2022-11-15T12:40:37;13.30;99.90
8820;DHT22;4446;50.876;4.736;2022-11-15T12:45:52;13.40;99.90
8820;DHT22;4446;50.876;4.736;2022-11-15T12:48:45;13.40;99.90
8820;DHT22;4446;50.876;4.736;2022-11-15T12:51:14;13.30;99.90
8820;DHT22;4446;50.876;4.736;2022-11-15T12:53:41;13.20;99.90
8820;DHT22;4446;50.876;4.736;2022-11-15T12:56:17;13.20;99.90
8820;DHT22;4446;50.876;4.736;2022-11-15T12:58:47;13.10;99.90
8820;DHT22;4446;50.876;4.736;2022-11-15T13:04:23;13.20;99.90
8820;DHT22;4446;50.876;4.736;2022-11-15T13:06:54;13.30;99.90
8820;DHT22;4446;50.876;4.736;2022-11-15T13:09:50;13.40;99.90
8820;DHT22;4446;50.876;4.736;2022-11-15T13:12:53;13.40;99.90
8820;DHT22;4446;50.876;4.736;2022-11-15T13:15:45;13.50;99.90
8820;DHT22;4446;50.876;4.736;2022-11-15T13:18:34;13.70;99.90
8820;DHT22;4446;50.876;4.736;2022-11-15T13:21:03;13.80;99.90
8820;DHT22;4446;50.876;4.736;2022-11-15T13:23:55;13.90;99.90
8820;DHT22;4446;50.876;4.736;2022-11-15T13:26:22;14.00;99.90
8820;DHT22;4446;50.876;4.736;2022-11-15T13:28:51;14.00;99.90
8820;DHT22;4446;50.876;4.736;2022-11-15T13:31:26;13.90;99.90
8820;DHT22;4446;50.876;4.736;2022-11-15T13:33:57;14.00;99.90
8820;DHT22;4446;50.876;4.736;2022-11-15T13:36:26;14.00;99.90
8820;DHT22;4446;50.876;4.736;2022-11-15T13:38:57;14.00;99.90
8820;DHT22;4446;50.876;4.736;2022-11-15T13:41:27;13.90;99.90
8820;DHT22;4446;50.876;4.736;2022-11-15T13:43:55;13.90;99.90
8820;DHT22;4446;50.876;4.736;2022-11-15T13:46:24;13.80;99.90
8820;DHT22;4446;50.876;4.736;2022-11-15T13:48:54;13.70;99.90
8820;DHT22;4446;50.876;4.736;2022-11-15T13:51:26;13.60;99.90
8820;DHT22;4446;50.876;4.736;2022-11-15T13:53:59;13.60;99.90
8820;DHT22;4446;50.876;4.736;2022-11-15T13:56:27;13.70;99.90
8820;DHT22;4446;50.876;4.736;2022-11-15T13:58:55;13.60;99.90
8820;DHT22;4446;50.876;4.736;2022-11-15T14:01:23;13.60;99.90
8820;DHT22;4446;50.876;4.736;2022-11-15T14:03:55;13.60;99.90
8820;DHT22;4446;50.876;4.736;2022-11-15T14:06:25;13.60;99.90
8820;DHT22;4446;50.876;4.736;2022-11-15T14:09:04;13.60;99.90
8820;DHT22;4446;50.876;4.736;2022-11-15T14:11:50;13.70;99.90
8820;DHT22;4446;50.876;4.736;2022-11-15T14:14:20;13.60;99.90
8820;DHT22;4446;50.876;4.736;2022-11-15T14:16:50;13.60;99.90
8820;DHT22;4446;50.876;4.736;2022-11-15T14:19:36;13.50;99.90
8820;DHT22;4446;50.876;4.736;2022-11-15T14:22:24;13.50;99.90
8820;DHT22;4446;50.876;4.736;2022-11-15T14:25:16;13.50;99.90
8820;DHT22;4446;50.876;4.736;2022-11-15T14:28:07;13.60;99.90
8820;DHT22;4446;50.876;4.736;2022-11-15T14:30:32;13.60;99.90
8820;DHT22;4446;50.876;4.736;2022-11-15T14:32:59;13.50;99.90
8820;DHT22;4446;50.876;4.736;2022-11-15T14:35:25;13.30;99.90
8820;DHT22;4446;50.876;4.736;2022-11-15T14:37:53;13.20;99.90
8820;DHT22;4446;50.876;4.736;2022-11-15T14:40:22;12.90;99.90
8820;DHT22;4446;50.876;4.736;2022-11-15T14:42:49;12.90;99.90
8820;DHT22;4446;50.876;4.736;2022-11-15T14:45:18;12.70;99.90
8820;DHT22;4446;50.876;4.736;2022-11-15T14:47:46;12.50;99.90
8820;DHT22;4446;50.876;4.736;2022-11-15T14:50:14;12.40;99.90
8820;DHT22;4446;50.876;4.736;2022-11-15T14:52:42;12.20;99.90
8820;DHT22;4446;50.876;4.736;2022-11-15T14:55:15;12.10;99.90
8820;DHT22;4446;50.876;4.736;2022-11-15T14:57:45;12.10;99.90
8820;DHT22;4446;50.876;4.736;2022-11-15T15:00:13;12.00;99.90
8820;DHT22;4446;50.876;4.736;2022-11-15T15:02:40;12.00;99.90
8820;DHT22;4446;50.876;4.736;2022-11-15T15:05:16;11.90;99.90
8820;DHT22;4446;50.876;4.736;2022-11-15T15:07:43;11.90;99.90
8820;DHT22;4446;50.876;4.736;2022-11-15T15:10:11;11.80;99.90
8820;DHT22;4446;50.876;4.736;2022-11-15T15:12:39;11.80;99.90
8820;DHT22;4446;50.876;4.736;2022-11-15T15:15:13;11.80;99.90
8820;DHT22;4446;50.876;4.736;2022-11-15T15:17:41;11.70;99.90
8820;DHT22;4446;50.876;4.736;2022-11-15T15:20:08;11.70;99.90
8820;DHT22;4446;50.876;4.736;2022-11-15T15:22:36;11.70;99.90
8820;DHT22;4446;50.876;4.736;2022-11-15T15:25:18;11.60;99.90
8820;DHT22;4446;50.876;4.736;2022-11-15T15:27:46;11.60;99.90
8820;DHT22;4446;50.876;4.736;2022-11-15T15:30:14;11.70;99.90
8820;DHT22;4446;50.876;4.736;2022-11-15T15:32:42;11.70;99.90
8820;DHT22;4446;50.876;4.736;2022-11-15T15:35:12;11.60;99.90
8820;DHT22;4446;50.876;4.736;2022-11-15T15:37:39;11.60;99.90
8820;DHT22;4446;50.876;4.736;2022-11-15T15:40:15;11.60;99.90
8820;DHT22;4446;50.876;4.736;2022-11-15T15:42:42;11.60;99.90
8820;DHT22;4446;50.876;4.736;2022-11-15T15:45:10;11.50;99.90
8820;DHT22;4446;50.876;4.736;2022-11-15T15:47:39;11.60;99.90
8820;DHT22;4446;50.876;4.736;2022-11-15T15:50:20;11.50;99.90
8820;DHT22;4446;50.876;4.736;2022-11-15T15:52:48;11.50;99.90
8820;DHT22;4446;50.876;4.736;2022-11-15T15:55:16;11.50;99.90
8820;DHT22;4446;50.876;4.736;2022-11-15T15:57:43;11.50;99.90
8820;DHT22;4446;50.876;4.736;2022-11-15T16:00:11;11.50;99.90
8820;DHT22;4446;50.876;4.736;2022-11-15T16:02:40;11.50;99.90
8820;DHT22;4446;50.876;4.736;2022-11-15T16:05:07;11.50;99.90
8820;DHT22;4446;50.876;4.736;2022-11-15T16:07:35;11.50;99.90
8820;DHT22;4446;50.876;4.736;2022-11-15T16:10:14;11.50;99.90
8820;DHT22;4446;50.876;4.736;2022-11-15T16:12:43;11.50;99.90
8820;DHT22;4446;50.876;4.736;2022-11-15T16:15:10;11.50;99.90
8820;DHT22;4446;50.876;4.736;2022-11-15T16:17:42;11.60;99.90
8820;DHT22;4446;50.876;4.736;2022-11-15T16:20:26;11.60;99.90
8820;DHT22;4446;50.876;4.736;2022-11-15T16:22:55;11.60;99.90
8820;DHT22;4446;50.876;4.736;2022-11-15T16:25:22;11.50;99.90
8820;DHT22;4446;50.876;4.736;2022-11-15T16:27:50;11.50;99.90
8820;DHT22;4446;50.876;4.736;2022-11-15T16:30:21;11.50;99.90
8820;DHT22;4446;50.876;4.736;2022-11-15T16:32:50;11.60;99.90
8820;DHT22;4446;50.876;4.736;2022-11-15T16:35:17;11.60;99.90
8820;DHT22;4446;50.876;4.736;2022-11-15T16:37:44;11.60;99.90
8820;DHT22;4446;50.876;4.736;2022-11-15T16:40:26;11.50;99.90